Thunder radar more information blitzortung!


Radar de pluja more information rain snow radar


Visita la nostra xarxa de llocs de meteo:

Template documentation
and downloads

And another site



No particular awareness of the weather is required.    There are no Weather-warnings

Pagina Historial Weather Underground text

Diari Resum Octubre 2, 2017 Unitats:  Imperial    Mètric   Tant
« Previous Dia
SegĂźent Dia »
Diari Setmana Mensual Anual Personalitzada
  Maxima: Minima: Media:
Temperatura: TemperatureC °F 15.9 °F 20.2 °F
Punt de rosada: DewpointC °F 14.4 °F 15.4 °F
Humitat: Humidity % 60 % 75 %
Wind Speed: WindSpeedKMH mph 0.0 mph 4.1 mph
RĂ fegues de vent: WindSpeedGustKMH mph - -
Vent:- - SSE
Pression baro: PressurehPa in 1021.9 in -
Precipitacions: 0.0 in    
Historical Graphs
 
 
Dades de taula per Octubre 2, 2017
Temps Temperatura Punt de rosada Pression baro Vent Wind Speed RĂ fegues de vent Humitat Rainfall Rate (Hourly)
TemperatureC °F DewpointC °F PressurehPa in Calm     Humidity % HourlyPrecipMM in
00:00 16.3 °F 15.0 °F 1022.9 in Calm     92 % 0.0 in
00:01 16.9 °F 14.9 °F 1023.9 in Calm     88 % 0.0 in
00:06 16.9 °F 14.9 °F 1023.9 in Calm     88 % 0.0 in
00:10 16.2 °F 14.9 °F 1022.9 in Calm     92 % 0.0 in
00:11 16.9 °F 14.9 °F 1023.9 in Calm     88 % 0.0 in
00:16 16.9 °F 14.9 °F 1023.9 in Calm     88 % 0.0 in
00:20 16.1 °F 14.6 °F 1022.9 in Calm     91 % 0.0 in
00:21 16.9 °F 14.9 °F 1023.9 in Calm     88 % 0.0 in
00:26 16.9 °F 14.9 °F 1023.9 in Calm     88 % 0.0 in
00:30 16.0 °F 14.6 °F 1022.9 in SSE 1.6 mph 3.2 mph 91 % 0.0 in
00:31 16.9 °F 15.1 °F 1023.9 in Calm     89 % 0.0 in
00:32 16.9 °F 15.1 °F 1023.9 in Calm     89 % 0.0 in
00:37 16.9 °F 15.1 °F 1023.9 in Calm     89 % 0.0 in
00:40 16.0 °F 14.6 °F 1022.9 in SW 1.6 mph 3.2 mph 91 % 0.0 in
00:50 16.0 °F 14.6 °F 1022.9 in Calm     91 % 0.0 in
01:00 15.9 °F 14.4 °F 1022.9 in Calm   3.2 mph 91 % 0.0 in
01:10 16.0 °F 14.7 °F 1022.9 in Calm   3.2 mph 92 % 0.0 in
01:20 16.0 °F 14.7 °F 1022.9 in Calm     92 % 0.0 in
01:30 16.1 °F 14.8 °F 1022.9 in Calm     92 % 0.0 in
01:40 16.2 °F 14.9 °F 1022.9 in Calm     92 % 0.0 in
01:50 16.2 °F 14.9 °F 1022.9 in Calm     92 % 0.0 in
02:00 16.3 °F 15.0 °F 1022.9 in Calm     92 % 0.0 in
02:10 16.3 °F 15.0 °F 1022.9 in Calm     92 % 0.0 in
02:20 16.2 °F 14.9 °F 1022.9 in Calm     92 % 0.0 in
02:30 16.2 °F 14.9 °F 1022.9 in Calm     92 % 0.0 in
02:50 16.1 °F 14.6 °F 1022.9 in SW 1.6 mph 3.2 mph 91 % 0.0 in
03:00 16.1 °F 14.6 °F 1022.9 in Calm   1.6 mph 91 % 0.0 in
03:10 16.1 °F 14.8 °F 1022.9 in Calm     92 % 0.0 in
03:20 16.2 °F 14.9 °F 1022.9 in Calm   1.6 mph 92 % 0.0 in
03:30 16.2 °F 14.9 °F 1022.9 in Calm   1.6 mph 92 % 0.0 in
03:40 16.3 °F 15.0 °F 1023.9 in Calm   1.6 mph 92 % 0.0 in
03:50 16.3 °F 15.0 °F 1023.9 in Calm     92 % 0.0 in
04:00 16.3 °F 15.0 °F 1022.9 in WSW 1.6 mph 3.2 mph 92 % 0.0 in
04:10 16.4 °F 15.1 °F 1023.9 in Calm   1.6 mph 92 % 0.0 in
04:20 16.6 °F 15.3 °F 1023.9 in Calm   1.6 mph 92 % 0.0 in
04:30 16.8 °F 15.5 °F 1023.9 in Calm     92 % 0.0 in
04:40 17.0 °F 15.5 °F 1022.9 in Calm   1.6 mph 91 % 0.0 in
04:50 17.1 °F 15.4 °F 1022.9 in SW 1.6 mph 1.6 mph 90 % 0.0 in
05:00 17.5 °F 15.8 °F 1023.9 in SW 1.6 mph 3.2 mph 90 % 0.0 in
05:10 17.8 °F 15.9 °F 1023.9 in Calm   1.6 mph 89 % 0.0 in
05:20 18.1 °F 15.9 °F 1023.9 in WSW 1.6 mph 3.2 mph 87 % 0.0 in
05:30 18.3 °F 15.9 °F 1023.9 in Calm   3.2 mph 86 % 0.0 in
05:40 18.6 °F 16.0 °F 1023.9 in ESE 3.2 mph 3.2 mph 85 % 0.0 in
05:50 19.0 °F 16.2 °F 1023.9 in East 1.6 mph 3.2 mph 84 % 0.0 in
10:55 19.2 °F 15.8 °F 1022.9 in ENE 5.6 mph 5.6 mph 81 % 0.0 in
11:00 19.5 °F 16.2 °F 1023.9 in ENE 3.9 mph 3.9 mph 81 % 0.0 in
11:05 19.9 °F 16.6 °F 1023.9 in ENE 7.4 mph 7.4 mph 81 % 0.0 in
11:10 20.1 °F 16.3 °F 1023.9 in ENE 5.6 mph 5.6 mph 79 % 0.0 in
11:15 20.5 °F 16.6 °F 1023.9 in ENE 9.3 mph 9.3 mph 78 % 0.0 in
11:16 20.5 °F 16.6 °F 1023.9 in NE 9.3 mph 9.3 mph 78 % 0.0 in
11:21 20.6 °F 16.4 °F 1023.9 in ENE 3.9 mph 3.9 mph 77 % 0.0 in
11:26 20.6 °F 16.2 °F 1023.9 in East 4.2 mph 4.2 mph 76 % 0.0 in
11:31 20.5 °F 16.1 °F 1023.9 in ENE 5.6 mph 5.6 mph 76 % 0.0 in
11:36 20.6 °F 16.0 °F 1023.9 in ENE 5.6 mph 5.6 mph 75 % 0.0 in
11:41 20.6 °F 15.8 °F 1023.9 in ENE 3.7 mph 3.7 mph 74 % 0.0 in
11:46 20.5 °F 15.5 °F 1023.9 in East 7.4 mph 7.4 mph 73 % 0.0 in
11:51 20.7 °F 15.9 °F 1023.9 in ENE 6.9 mph 6.9 mph 74 % 0.0 in
11:56 20.7 °F 15.7 °F 1023.9 in ESE 3.7 mph 3.9 mph 73 % 0.0 in
12:01 21.0 °F 16.2 °F 1023.9 in SE 7.4 mph 7.4 mph 74 % 0.0 in
12:06 21.2 °F 16.2 °F 1023.9 in ENE 5.6 mph 5.6 mph 73 % 0.0 in
12:11 21.6 °F 16.6 °F 1023.9 in NE 7.9 mph 7.9 mph 73 % 0.0 in
12:16 21.6 °F 16.3 °F 1023.9 in ESE 4.2 mph 4.2 mph 72 % 0.0 in
12:21 21.6 °F 16.1 °F 1023.9 in ENE 5.6 mph 5.6 mph 71 % 0.0 in
12:26 21.5 °F 15.8 °F 1023.9 in ESE 3.9 mph 3.9 mph 70 % 0.0 in
12:31 21.5 °F 16.0 °F 1023.9 in ENE 5.6 mph 5.6 mph 71 % 0.0 in
12:36 21.5 °F 16.0 °F 1023.9 in East 5.6 mph 5.6 mph 71 % 0.0 in
12:41 21.7 °F 16.4 °F 1023.9 in SW 3.7 mph 3.7 mph 72 % 0.0 in
12:46 21.8 °F 16.3 °F 1023.9 in West 3.7 mph 3.7 mph 71 % 0.0 in
12:51 22.1 °F 16.2 °F 1023.9 in WSW 1.9 mph 1.9 mph 69 % 0.0 in
12:56 22.3 °F 16.6 °F 1023.9 in WSW 3.7 mph 3.7 mph 70 % 0.0 in
13:01 22.5 °F 16.5 °F 1023.9 in SSE 3.7 mph 3.7 mph 69 % 0.0 in
13:06 22.3 °F 16.1 °F 1023.9 in ENE 7.4 mph 7.4 mph 68 % 0.0 in
13:11 22.2 °F 16.0 °F 1023.9 in ESE 3.7 mph 3.7 mph 68 % 0.0 in
13:16 22.0 °F 15.3 °F 1023.9 in ESE 5.6 mph 5.6 mph 66 % 0.0 in
13:21 22.5 °F 16.1 °F 1023.9 in South 7.4 mph 7.4 mph 67 % 0.0 in
13:26 22.7 °F 16.0 °F 1023.9 in SW 3.7 mph 3.7 mph 66 % 0.0 in
13:31 23.0 °F 16.3 °F 1023.9 in SE 5.0 mph 5.0 mph 66 % 0.0 in
13:36 23.2 °F 16.3 °F 1023.9 in ESE 9.3 mph 9.3 mph 65 % 0.0 in
13:41 23.1 °F 15.9 °F 1023.9 in ENE 3.7 mph 3.9 mph 64 % 0.0 in
13:46 23.6 °F 15.9 °F 1023.9 in ESE 6.9 mph 6.9 mph 62 % 0.0 in
13:51 23.9 °F 16.9 °F 1023.9 in NNW 3.7 mph 3.7 mph 65 % 0.0 in
13:56 23.7 °F 16.2 °F 1023.9 in NNE 4.2 mph 4.2 mph 63 % 0.0 in
14:01 23.2 °F 16.0 °F 1023.9 in NNE 7.4 mph 7.4 mph 64 % 0.0 in
14:06 23.2 °F 16.0 °F 1023.9 in ESE 5.6 mph 5.6 mph 64 % 0.0 in
14:11 23.6 °F 16.2 °F 1023.9 in SSW 2.3 mph 2.3 mph 63 % 0.0 in
14:16 23.4 °F 15.7 °F 1023.9 in NE 7.4 mph 7.4 mph 62 % 0.0 in
14:21 23.4 °F 16.4 °F 1023.9 in NW 5.6 mph 5.6 mph 65 % 0.0 in
14:26 23.6 °F 16.4 °F 1023.9 in NNW 4.7 mph 4.7 mph 64 % 0.0 in
14:31 23.7 °F 16.2 °F 1023.9 in WNW 3.7 mph 3.7 mph 63 % 0.0 in
14:32 23.7 °F 16.2 °F 1023.9 in ESE 3.7 mph 3.7 mph 63 % 0.0 in
14:37 23.5 °F 15.8 °F 1023.9 in ENE 3.7 mph 3.7 mph 62 % 0.0 in
14:42 23.3 °F 15.6 °F 1023.9 in SSE 5.6 mph 5.6 mph 62 % 0.0 in
14:47 23.5 °F 16.1 °F 1023.9 in West 1.9 mph   63 % 0.0 in
14:52 23.7 °F 16.0 °F 1023.9 in ENE 3.9 mph 3.9 mph 62 % 0.0 in
14:57 23.8 °F 16.1 °F 1023.9 in NE 3.2 mph   62 % 0.0 in
15:02 24.1 °F 16.4 °F 1023.9 in SSW 3.7 mph 3.7 mph 62 % 0.0 in
15:07 23.8 °F 15.8 °F 1023.9 in SSE 5.6 mph 5.6 mph 61 % 0.0 in
15:12 23.6 °F 15.4 °F 1023.9 in East 7.4 mph 7.4 mph 60 % 0.0 in
15:17 23.5 °F 15.3 °F 1023.9 in ESE 6.1 mph 6.1 mph 60 % 0.0 in
15:22 23.5 °F 15.6 °F 1023.9 in East 3.7 mph 3.7 mph 61 % 0.0 in
15:27 23.5 °F 15.6 °F 1023.9 in ESE 3.7 mph 3.7 mph 61 % 0.0 in
15:32 23.5 °F 15.6 °F 1022.9 in NE 3.7 mph 3.7 mph 61 % 0.0 in
15:37 23.6 °F 15.6 °F 1022.9 in NNE 3.7 mph 3.7 mph 61 % 0.0 in
15:42 23.5 °F 15.6 °F 1022.9 in East 5.6 mph 5.6 mph 61 % 0.0 in
15:47 23.5 °F 15.6 °F 1022.9 in NE 3.7 mph 4.2 mph 61 % 0.0 in
15:52 23.8 °F 16.1 °F 1022.9 in ESE 3.9 mph 3.9 mph 62 % 0.0 in
15:57 23.9 °F 16.2 °F 1022.9 in ENE 5.6 mph 5.6 mph 62 % 0.0 in
16:02 23.7 °F 16.0 °F 1022.9 in East 6.1 mph 6.1 mph 62 % 0.0 in
16:07 23.6 °F 15.6 °F 1022.9 in ESE 7.4 mph 7.4 mph 61 % 0.0 in
16:12 23.6 °F 15.9 °F 1022.9 in East 9.3 mph 9.3 mph 62 % 0.0 in
16:17 23.8 °F 15.8 °F 1022.9 in ESE 9.3 mph 9.3 mph 61 % 0.0 in
16:22 24.0 °F 16.0 °F 1022.9 in East 5.6 mph 6.9 mph 61 % 0.0 in
16:27 23.7 °F 15.7 °F 1022.9 in East 13.0 mph 13.0 mph 61 % 0.0 in
16:32 23.5 °F 15.6 °F 1021.9 in East 13.0 mph 13.0 mph 61 % 0.0 in
16:37 23.5 °F 15.6 °F 1021.9 in ENE 9.3 mph 9.3 mph 61 % 0.0 in
16:42 23.5 °F 15.6 °F 1021.9 in East 9.5 mph 9.5 mph 61 % 0.0 in
16:47 23.4 °F 15.4 °F 1022.9 in East 11.1 mph 11.1 mph 61 % 0.0 in
16:52 23.2 °F 15.3 °F 1022.9 in NE 16.7 mph 16.7 mph 61 % 0.0 in
16:57 23.1 °F 15.4 °F 1022.9 in East 13.0 mph 13.0 mph 62 % 0.0 in
17:02 23.1 °F 15.4 °F 1022.9 in ESE 5.6 mph 6.4 mph 62 % 0.0 in
17:07 23.0 °F 15.3 °F 1022.9 in ESE 16.7 mph 16.7 mph 62 % 0.0 in
17:12 22.8 °F 15.1 °F 1022.9 in ESE 13.0 mph 13.0 mph 62 % 0.0 in
17:17 22.9 °F 15.5 °F 1022.9 in ESE 9.3 mph 9.3 mph 63 % 0.0 in
17:22 22.8 °F 15.4 °F 1022.9 in ESE 9.3 mph 9.5 mph 63 % 0.0 in
17:27 22.7 °F 15.3 °F 1022.9 in SE 13.0 mph 13.0 mph 63 % 0.0 in
17:32 22.5 °F 15.1 °F 1022.9 in ESE 13.0 mph 13.0 mph 63 % 0.0 in
17:37 22.6 °F 15.4 °F 1022.9 in ESE 11.1 mph 11.1 mph 64 % 0.0 in
17:42 22.5 °F 15.3 °F 1022.9 in ESE 12.2 mph 12.2 mph 64 % 0.0 in
17:47 22.4 °F 15.3 °F 1022.9 in SE 9.7 mph 9.7 mph 64 % 0.0 in
17:52 22.4 °F 15.5 °F 1022.9 in ESE 7.4 mph 7.4 mph 65 % 0.0 in
17:57 22.3 °F 15.4 °F 1022.9 in SSE 12.2 mph 12.2 mph 65 % 0.0 in
18:02 22.2 °F 15.6 °F 1022.9 in ESE 8.7 mph 8.7 mph 66 % 0.0 in
18:07 22.2 °F 15.6 °F 1022.9 in ENE 7.4 mph 7.4 mph 66 % 0.0 in
18:12 22.2 °F 15.6 °F 1022.9 in ENE 7.4 mph 7.4 mph 66 % 0.0 in
18:17 22.2 °F 15.8 °F 1022.9 in ENE 9.3 mph 9.3 mph 67 % 0.0 in
18:22 22.2 °F 15.8 °F 1022.9 in East 7.4 mph 7.4 mph 67 % 0.0 in
18:27 22.2 °F 15.8 °F 1022.9 in ESE 6.1 mph 6.1 mph 67 % 0.0 in
18:32 22.1 °F 15.7 °F 1022.9 in SSE 7.4 mph 7.4 mph 67 % 0.0 in
18:37 22.2 °F 15.8 °F 1022.9 in South 3.9 mph 3.9 mph 67 % 0.0 in
18:42 22.2 °F 15.8 °F 1022.9 in SSE 4.7 mph 4.7 mph 67 % 0.0 in
18:47 22.2 °F 15.8 °F 1022.9 in West 1.9 mph   67 % 0.0 in
18:52 22.2 °F 15.8 °F 1022.9 in WSW 1.9 mph 2.3 mph 67 % 0.0 in
18:57 22.1 °F 15.7 °F 1022.9 in SSW 5.6 mph 5.6 mph 67 % 0.0 in
19:02 22.1 °F 15.7 °F 1023.9 in WSW 3.9 mph 3.9 mph 67 % 0.0 in
19:07 22.0 °F 15.8 °F 1023.9 in SSW 5.8 mph 5.8 mph 68 % 0.0 in
19:12 21.8 °F 15.8 °F 1023.9 in SW 7.4 mph 7.4 mph 69 % 0.0 in
19:17 21.7 °F 15.8 °F 1022.9 in SSW 9.3 mph 9.3 mph 69 % 0.0 in
19:22 21.6 °F 15.9 °F 1022.9 in SW 9.3 mph 9.3 mph 70 % 0.0 in
19:27 21.5 °F 15.8 °F 1022.9 in SW 5.6 mph 5.6 mph 70 % 0.0 in
19:30 18.9 °F 15.2 °F 1023.9 in Calm     79 % 0.0 in
19:32 21.4 °F 15.7 °F 1023.9 in SW 5.6 mph 5.6 mph 70 % 0.0 in
19:37 21.2 °F 15.5 °F 1023.9 in SW 13.0 mph 13.0 mph 70 % 0.0 in
19:40 18.8 °F 15.1 °F 1022.9 in Calm     79 % 0.0 in
19:42 21.2 °F 15.5 °F 1023.9 in SW 5.6 mph 5.6 mph 70 % 0.0 in
19:47 21.0 °F 15.6 °F 1023.9 in SSW 6.1 mph 6.1 mph 71 % 0.0 in
19:50 18.7 °F 15.0 °F 1022.9 in Calm   1.6 mph 79 % 0.0 in
19:52 20.9 °F 15.4 °F 1023.9 in SSW 5.6 mph 5.6 mph 71 % 0.0 in
19:57 20.8 °F 15.3 °F 1023.9 in SW 7.4 mph 7.4 mph 71 % 0.0 in
20:00 18.5 °F 15.0 °F 1023.9 in Calm     80 % 0.0 in
20:02 20.7 °F 15.4 °F 1023.9 in SW 7.4 mph 7.4 mph 72 % 0.0 in
20:07 20.6 °F 15.4 °F 1023.9 in WSW 7.4 mph 7.4 mph 72 % 0.0 in
20:10 18.4 °F 14.9 °F 1023.9 in Calm     80 % 0.0 in
20:12 20.6 °F 15.4 °F 1023.9 in SSW 5.0 mph 5.0 mph 72 % 0.0 in
20:17 20.5 °F 15.3 °F 1023.9 in SW 5.3 mph 5.3 mph 72 % 0.0 in
20:20 18.3 °F 14.8 °F 1023.9 in Calm     80 % 0.0 in
20:22 20.4 °F 15.4 °F 1023.9 in South 5.6 mph 5.6 mph 73 % 0.0 in
20:27 20.4 °F 15.4 °F 1023.9 in SW 9.3 mph 9.3 mph 73 % 0.0 in
20:30 18.3 °F 15.0 °F 1023.9 in Calm   1.6 mph 81 % 0.0 in
20:32 20.4 °F 15.4 °F 1023.9 in SW 7.4 mph 7.4 mph 73 % 0.0 in
20:37 20.3 °F 15.5 °F 1023.9 in SW 4.2 mph 4.2 mph 74 % 0.0 in
20:40 18.1 °F 14.8 °F 1023.9 in Calm     81 % 0.0 in
20:42 20.3 °F 15.5 °F 1023.9 in WSW 5.6 mph 5.6 mph 74 % 0.0 in
20:47 20.3 °F 15.5 °F 1023.9 in WSW 3.9 mph 3.9 mph 74 % 0.0 in
20:50 18.1 °F 15.0 °F 1023.9 in Calm     82 % 0.0 in
20:52 20.2 °F 15.4 °F 1023.9 in SW 5.6 mph 5.6 mph 74 % 0.0 in
20:57 20.2 °F 15.6 °F 1023.9 in SW 5.6 mph 5.6 mph 75 % 0.0 in
21:00 18.1 °F 15.0 °F 1023.9 in Calm     82 % 0.0 in
21:02 20.1 °F 15.6 °F 1023.9 in SW 3.7 mph 3.7 mph 75 % 0.0 in
21:07 20.0 °F 15.4 °F 1023.9 in SW 3.9 mph 3.9 mph 75 % 0.0 in
21:10 18.0 °F 14.9 °F 1022.9 in Calm   1.6 mph 82 % 0.0 in
21:12 20.0 °F 15.4 °F 1023.9 in WSW 3.7 mph 4.7 mph 75 % 0.0 in
21:17 20.0 °F 15.7 °F 1023.9 in SW 3.7 mph 3.7 mph 76 % 0.0 in
21:20 17.8 °F 14.7 °F 1022.9 in Calm     82 % 0.0 in
21:22 19.9 °F 15.6 °F 1023.9 in WSW 3.7 mph 3.7 mph 76 % 0.0 in
21:27 19.8 °F 15.4 °F 1023.9 in WSW 3.7 mph 3.7 mph 76 % 0.0 in
21:30 17.8 °F 14.9 °F 1022.9 in Calm     83 % 0.0 in
21:32 19.8 °F 15.4 °F 1023.9 in West 5.6 mph 5.6 mph 76 % 0.0 in
21:37 19.7 °F 15.6 °F 1023.9 in SW 3.7 mph 3.7 mph 77 % 0.0 in
21:40 17.8 °F 14.9 °F 1022.9 in Calm     83 % 0.0 in
21:42 19.7 °F 15.6 °F 1023.9 in SSW 3.7 mph 3.7 mph 77 % 0.0 in
21:47 19.7 °F 15.6 °F 1023.9 in WSW 3.7 mph 3.7 mph 77 % 0.0 in
21:50 17.7 °F 14.8 °F 1022.9 in Calm     83 % 0.0 in
21:52 19.6 °F 15.4 °F 1023.9 in West 3.7 mph   77 % 0.0 in
21:57 19.6 °F 15.4 °F 1023.9 in West 3.7 mph   77 % 0.0 in
22:00 17.7 °F 14.9 °F 1022.9 in Calm     84 % 0.0 in
22:02 19.6 °F 15.4 °F 1023.9 in SW 3.7 mph 3.7 mph 77 % 0.0 in
22:07 19.6 °F 15.4 °F 1023.9 in WSW 3.7 mph 3.7 mph 77 % 0.0 in
22:10 17.6 °F 14.7 °F 1022.9 in Calm     83 % 0.0 in
22:12 19.5 °F 15.3 °F 1023.9 in SW 3.7 mph 3.7 mph 77 % 0.0 in
22:17 19.5 °F 15.3 °F 1022.9 in SW 3.7 mph 3.7 mph 77 % 0.0 in
22:20 17.8 °F 15.1 °F 1022.9 in Calm     84 % 0.0 in
22:22 19.5 °F 15.3 °F 1022.9 in WSW 2.6 mph 2.6 mph 77 % 0.0 in
22:27 19.4 °F 15.3 °F 1022.9 in SW 3.7 mph 3.7 mph 77 % 0.0 in
22:30 18.1 °F 15.2 °F 1022.9 in Calm     83 % 0.0 in
22:32 19.4 °F 15.3 °F 1023.9 in SW 5.6 mph 5.6 mph 77 % 0.0 in
22:37 19.4 °F 15.3 °F 1023.9 in SW 1.9 mph 1.9 mph 77 % 0.0 in
22:40 18.2 °F 15.3 °F 1022.9 in Calm     83 % 0.0 in
22:42 19.4 °F 15.3 °F 1023.9 in SW 3.7 mph 3.7 mph 77 % 0.0 in
22:47 19.4 °F 15.3 °F 1022.9 in SW 1.9 mph 2.3 mph 77 % 0.0 in
22:50 18.3 °F 15.2 °F 1022.9 in Calm     82 % 0.0 in
22:52 19.4 °F 15.3 °F 1022.9 in SW 1.9 mph 1.9 mph 77 % 0.0 in
22:57 19.4 °F 15.3 °F 1022.9 in SW 1.9 mph 1.9 mph 77 % 0.0 in
23:00 18.4 °F 15.3 °F 1021.9 in Calm     82 % 0.0 in
23:02 19.4 °F 15.3 °F 1023.9 in SW 1.9 mph   77 % 0.0 in
23:07 19.5 °F 15.3 °F 1023.9 in West 3.7 mph 3.7 mph 77 % 0.0 in
23:10 18.3 °F 15.2 °F 1021.9 in Calm     82 % 0.0 in
23:12 19.5 °F 15.3 °F 1023.9 in WSW 5.6 mph 5.6 mph 77 % 0.0 in
23:17 19.5 °F 15.3 °F 1023.9 in WSW 3.7 mph 3.7 mph 77 % 0.0 in
23:20 18.1 °F 15.0 °F 1021.9 in Calm     82 % 0.0 in
23:22 19.5 °F 15.3 °F 1023.9 in WSW 3.7 mph 3.7 mph 77 % 0.0 in
23:27 19.5 °F 15.3 °F 1023.9 in WSW 3.7 mph 3.7 mph 77 % 0.0 in
23:30 17.8 °F 14.9 °F 1021.9 in Calm     83 % 0.0 in
23:32 19.4 °F 15.3 °F 1023.9 in WSW 3.7 mph 3.7 mph 77 % 0.0 in
23:37 19.4 °F 15.3 °F 1023.9 in Calm     77 % 0.0 in
23:40 17.5 °F 14.6 °F 1021.9 in Calm     83 % 0.0 in
23:42 19.3 °F 15.2 °F 1023.9 in Calm     77 % 0.0 in
23:47 19.3 °F 15.2 °F 1023.9 in SW 3.2 mph   77 % 0.0 in
23:50 17.3 °F 14.6 °F 1021.9 in Calm     84 % 0.0 in
23:52 19.3 °F 15.2 °F 1023.9 in WSW 2.6 mph 2.6 mph 77 % 0.0 in
23:57 19.2 °F 15.1 °F 1023.9 in WSW 1.9 mph 1.9 mph 77 % 0.0 in
Meteo Sesrovires
Elogis d' Weather Underground - 3.75 mb

Guio original per  Jim McMurry - jmcmurry@mwt.net Adaptat per a la plantilla per  Wim van der Kuil - Leuven-Template.eu

Trobareu la nostra informacio del temps tambe a:

Weather Underground

AWEKAS